createdAt,value
2023-03-06T00:00:20.832Z,508.00
2023-03-06T00:01:20.856Z,513.00
2023-03-06T00:02:20.913Z,509.00
2023-03-06T00:03:20.911Z,511.00
2023-03-06T00:04:20.876Z,505.00
2023-03-06T00:05:20.880Z,510.00
2023-03-06T00:06:20.945Z,506.00
2023-03-06T00:07:20.889Z,512.00
2023-03-06T00:08:20.915Z,501.00
2023-03-06T00:09:20.927Z,509.00
2023-03-06T00:10:20.939Z,509.00
2023-03-06T00:11:20.950Z,507.00
2023-03-06T00:12:20.974Z,508.00
2023-03-06T00:13:21.032Z,507.00
2023-03-06T00:14:21.001Z,507.00
2023-03-06T00:15:21.011Z,506.00
2023-03-06T00:16:21.048Z,506.00
2023-03-06T00:17:21.028Z,504.00
2023-03-06T00:18:21.053Z,505.00
2023-03-06T00:19:21.066Z,505.00
2023-03-06T00:20:21.085Z,500.00
2023-03-06T00:21:21.087Z,500.00
2023-03-06T00:22:21.099Z,509.00
2023-03-06T00:23:21.105Z,510.00
2023-03-06T00:24:21.120Z,506.00
2023-03-06T00:25:21.321Z,506.00
2023-03-06T00:26:21.802Z,505.00
2023-03-06T00:27:21.165Z,504.00
2023-03-06T00:28:21.265Z,506.00
2023-03-06T00:29:21.195Z,507.00
2023-03-06T00:30:21.203Z,508.00
2023-03-06T00:31:21.292Z,513.00
2023-03-06T00:32:21.257Z,507.00
2023-03-06T00:33:21.236Z,506.00
2023-03-06T00:34:21.266Z,511.00
2023-03-06T00:35:21.325Z,507.00
2023-03-06T00:36:21.267Z,512.00
2023-03-06T00:37:21.285Z,508.00
2023-03-06T00:38:21.291Z,506.00
2023-03-06T00:39:21.302Z,509.00
2023-03-06T00:40:21.342Z,509.00
2023-03-06T00:41:21.327Z,507.00
2023-03-06T00:42:22.310Z,506.00
2023-03-06T00:43:21.384Z,509.00
2023-03-06T00:44:21.373Z,504.00
2023-03-06T00:45:21.412Z,505.00
2023-03-06T00:46:21.408Z,507.00
2023-03-06T00:47:21.414Z,510.00
2023-03-06T00:49:21.531Z,513.00
2023-03-06T00:50:21.474Z,500.00
2023-03-06T00:51:21.471Z,505.00
2023-03-06T00:52:21.482Z,505.00
2023-03-06T00:53:21.502Z,500.00
2023-03-06T00:54:21.492Z,507.00
2023-03-06T00:55:21.524Z,512.00
2023-03-06T01:14:21.778Z,505.00
2023-03-06T01:15:21.780Z,503.00
2023-03-06T01:16:21.957Z,501.00
2023-03-06T01:17:21.812Z,503.00
2023-03-06T01:18:21.826Z,506.00
2023-03-06T01:19:21.858Z,505.00
2023-03-06T01:20:21.940Z,506.00
2023-03-06T01:21:21.868Z,513.00
2023-03-06T01:22:21.884Z,512.00
2023-03-06T01:23:21.897Z,513.00
2023-03-06T01:24:21.903Z,511.00
2023-03-06T01:25:21.903Z,503.00
2023-03-06T01:26:21.932Z,509.00
2023-03-06T01:27:21.936Z,511.00
2023-03-06T01:28:21.943Z,508.00
2023-03-06T01:29:21.953Z,512.00
2023-03-06T01:30:21.948Z,504.00
2023-03-06T01:31:22.004Z,505.00
2023-03-06T01:32:22.034Z,506.00
2023-03-06T01:33:21.969Z,507.00
2023-03-06T01:34:21.972Z,505.00
2023-03-06T01:35:21.999Z,513.00
2023-03-06T01:36:21.983Z,511.00
2023-03-06T01:37:21.995Z,508.00
2023-03-06T01:38:22.004Z,509.00
2023-03-06T01:39:22.008Z,507.00
2023-03-06T01:40:21.990Z,512.00
2023-03-06T01:41:22.005Z,508.00
2023-03-06T01:42:22.008Z,507.00
2023-03-06T01:43:21.993Z,512.00
2023-03-06T01:44:22.011Z,507.00
2023-03-06T01:45:22.008Z,506.00
2023-03-06T01:46:22.016Z,505.00
2023-03-06T01:47:22.020Z,509.00
2023-03-06T01:48:22.032Z,508.00
2023-03-06T01:49:22.061Z,505.00
2023-03-06T01:50:22.073Z,509.00
2023-03-06T01:51:22.098Z,515.00
2023-03-06T01:52:22.137Z,513.00
2023-03-06T01:53:22.294Z,511.00
2023-03-06T01:54:22.219Z,515.00
2023-03-06T01:55:22.258Z,508.00
2023-03-06T01:56:22.288Z,511.00
2023-03-06T01:57:22.330Z,507.00
2023-03-06T01:58:22.346Z,514.00
2023-03-06T01:59:22.379Z,510.00
2023-03-06T02:00:22.435Z,509.00
2023-03-06T02:01:22.469Z,511.00
2023-03-06T02:02:22.559Z,515.00
2023-03-06T02:03:22.552Z,509.00
2023-03-06T02:04:22.595Z,503.00
2023-03-06T02:05:22.618Z,506.00
2023-03-06T02:06:22.639Z,512.00
2023-03-06T02:07:22.851Z,504.00
2023-03-06T02:08:22.684Z,504.00
2023-03-06T02:09:22.731Z,507.00
2023-03-06T02:10:22.783Z,504.00
2023-03-06T02:11:22.833Z,507.00
2023-03-06T02:12:22.842Z,502.00
2023-03-06T02:13:22.873Z,506.00
2023-03-06T02:14:22.899Z,507.00
2023-03-06T02:15:23.841Z,509.00
2023-03-06T02:16:23.115Z,508.00
2023-03-06T02:17:22.986Z,507.00
2023-03-06T02:18:23.030Z,509.00
2023-03-06T02:19:23.096Z,501.00
2023-03-06T02:20:23.117Z,504.00
2023-03-06T02:21:23.138Z,506.00
2023-03-06T02:22:23.147Z,509.00
2023-03-06T02:23:23.165Z,511.00
2023-03-06T02:24:23.181Z,507.00
2023-03-06T02:25:23.209Z,508.00
2023-03-06T02:26:23.217Z,506.00
2023-03-06T02:27:23.234Z,506.00
2023-03-06T02:28:23.247Z,510.00
2023-03-06T02:29:23.256Z,512.00
2023-03-06T02:30:23.253Z,505.00
2023-03-06T02:31:23.249Z,510.00
2023-03-06T02:32:23.313Z,504.00
2023-03-06T02:33:23.267Z,508.00
2023-03-06T02:34:23.301Z,512.00
2023-03-06T02:35:23.388Z,511.00
2023-03-06T02:36:23.401Z,507.00
2023-03-06T02:37:23.418Z,504.00
2023-03-06T02:38:23.871Z,507.00
2023-03-06T02:39:23.485Z,508.00
2023-03-06T02:40:23.539Z,507.00
2023-03-06T02:41:23.707Z,510.00
2023-03-06T02:42:23.629Z,507.00
2023-03-06T02:43:23.720Z,510.00
2023-03-06T02:44:23.693Z,503.00
2023-03-06T02:45:23.743Z,508.00
2023-03-06T02:46:23.841Z,506.00
2023-03-06T02:47:23.850Z,507.00
2023-03-06T02:48:23.879Z,503.00
2023-03-06T02:49:26.129Z,511.00
2023-03-06T02:50:24.024Z,508.00
2023-03-06T02:51:24.085Z,507.00
2023-03-06T02:52:24.111Z,503.00
2023-03-06T02:53:24.141Z,504.00
2023-03-06T02:54:24.854Z,507.00
2023-03-06T02:55:24.170Z,510.00
2023-03-06T02:56:24.170Z,513.00
2023-03-06T02:57:24.174Z,505.00
2023-03-06T02:58:24.183Z,507.00
2023-03-06T02:59:24.188Z,512.00
2023-03-06T03:00:24.233Z,510.00
2023-03-06T03:01:24.296Z,505.00
2023-03-06T03:02:24.295Z,509.00
2023-03-06T03:03:24.326Z,501.00
2023-03-06T03:04:24.402Z,506.00
2023-03-06T03:05:24.399Z,506.00
2023-03-06T03:06:24.422Z,507.00
2023-03-06T03:07:24.429Z,508.00
2023-03-06T03:08:24.460Z,509.00
2023-03-06T03:09:24.502Z,501.00
2023-03-06T03:10:24.530Z,512.00
2023-03-06T03:11:24.539Z,508.00
2023-03-06T03:12:24.550Z,513.00
2023-03-06T03:13:24.557Z,509.00
2023-03-06T03:14:24.554Z,509.00
2023-03-06T03:15:24.578Z,507.00
2023-03-06T03:16:24.589Z,508.00
2023-03-06T03:17:24.600Z,502.00
2023-03-06T03:18:24.588Z,508.00
2023-03-06T03:19:24.607Z,513.00
2023-03-06T03:20:24.882Z,506.00
2023-03-06T03:21:24.611Z,505.00
2023-03-06T03:22:24.628Z,508.00
2023-03-06T06:42:34.601Z,509.00
2023-03-06T06:43:28.012Z,510.00
2023-03-06T07:02:27.954Z,507.00
2023-03-06T07:25:27.946Z,516.00
2023-03-06T07:34:27.961Z,515.00
2023-03-06T07:38:28.018Z,517.00
2023-03-06T07:43:28.029Z,519.00
2023-03-06T08:23:27.967Z,539.00
2023-03-06T08:27:28.035Z,568.00
2023-03-06T08:32:27.770Z,766.00
2023-03-06T08:33:27.868Z,749.00
2023-03-06T08:34:27.767Z,802.00
2023-03-06T08:35:29.490Z,793.00
2023-03-06T08:36:27.937Z,821.00
2023-03-06T08:37:27.909Z,831.00
2023-03-06T08:38:27.904Z,858.00
2023-03-06T08:39:27.928Z,898.00
2023-03-06T08:40:27.964Z,919.00
2023-03-06T08:41:28.002Z,949.00
2023-03-06T08:42:28.008Z,991.00
2023-03-06T08:43:28.043Z,1015.00
2023-03-06T08:44:28.481Z,1166.00
2023-03-06T08:45:28.081Z,1501.00
2023-03-06T08:46:28.093Z,1486.00
2023-03-06T08:47:28.098Z,1432.00
2023-03-06T08:48:28.116Z,1365.00
2023-03-06T08:49:28.185Z,1374.00
2023-03-06T08:50:28.129Z,1332.00
2023-03-06T08:51:28.178Z,1342.00
2023-03-06T08:52:28.169Z,1339.00
2023-03-06T08:53:42.062Z,1345.00
2023-03-06T08:54:29.157Z,1346.00
2023-03-06T08:55:28.188Z,1365.00
2023-03-06T08:56:29.042Z,1409.00
2023-03-06T08:57:28.132Z,1467.00
2023-03-06T08:58:28.205Z,1542.00
2023-03-06T08:59:28.127Z,1557.00
2023-03-06T09:00:28.118Z,2097.00
2023-03-06T09:01:28.209Z,2225.00
2023-03-06T09:02:28.132Z,2103.00
2023-03-06T09:03:28.085Z,1977.00
2023-03-06T09:04:28.073Z,1931.00
2023-03-06T09:05:28.076Z,1905.00
2023-03-06T09:06:28.125Z,1883.00
2023-03-06T09:07:28.051Z,1885.00
2023-03-06T09:08:28.048Z,1878.00
2023-03-06T09:09:28.484Z,1873.00
2023-03-06T09:10:28.079Z,1893.00
2023-03-06T09:11:28.050Z,1887.00
2023-03-06T09:12:29.315Z,1872.00
2023-03-06T09:13:28.016Z,1880.00
2023-03-06T09:14:28.011Z,1901.00
2023-03-06T09:15:27.990Z,1690.00
2023-03-06T09:16:28.008Z,1385.00
2023-03-06T09:17:28.003Z,1195.00
2023-03-06T09:18:27.980Z,1032.00
2023-03-06T09:19:27.986Z,1021.00
2023-03-06T09:20:28.010Z,991.00
2023-03-06T09:21:28.026Z,1032.00
2023-03-06T09:22:27.993Z,1056.00
2023-03-06T09:23:27.998Z,1068.00
2023-03-06T09:24:28.000Z,1079.00
2023-03-06T09:25:28.000Z,1124.00
2023-03-06T09:26:43.467Z,1136.00
2023-03-06T09:27:29.008Z,1138.00
2023-03-06T09:28:28.000Z,1147.00
2023-03-06T09:29:28.044Z,1168.00
2023-03-06T09:30:27.994Z,1217.00
2023-03-06T09:31:27.984Z,1283.00
2023-03-06T09:32:28.000Z,1304.00
2023-03-06T09:33:27.974Z,1349.00
2023-03-06T09:34:27.966Z,1362.00
2023-03-06T09:35:27.976Z,1391.00
2023-03-06T09:36:27.960Z,1418.00
2023-03-06T09:37:27.935Z,1440.00
2023-03-06T09:38:27.935Z,1483.00
2023-03-06T09:39:27.910Z,1537.00
2023-03-06T09:40:27.904Z,1576.00
2023-03-06T09:41:27.905Z,1618.00
2023-03-06T09:42:27.913Z,1645.00
2023-03-06T09:43:27.894Z,1676.00
2023-03-06T09:44:27.879Z,1706.00
2023-03-06T09:45:27.884Z,1732.00
2023-03-06T09:46:27.905Z,1746.00
2023-03-06T09:47:27.860Z,1783.00
2023-03-06T09:48:27.914Z,1798.00
2023-03-06T09:49:27.838Z,1855.00
2023-03-06T09:50:27.836Z,1888.00
2023-03-06T09:51:27.831Z,2132.00
2023-03-06T09:52:27.840Z,2202.00
2023-03-06T09:53:27.808Z,2149.00
2023-03-06T09:54:27.798Z,2148.00
2023-03-06T09:55:27.788Z,2148.00
2023-03-06T09:56:27.781Z,2172.00
2023-03-06T09:57:27.800Z,2179.00
2023-03-06T09:58:28.500Z,2198.00
2023-03-06T09:59:28.501Z,2206.00
2023-03-06T10:01:27.977Z,2240.00
2023-03-06T10:02:28.111Z,2252.00
2023-03-06T10:03:28.187Z,2276.00
2023-03-06T10:04:28.177Z,2288.00
2023-03-06T10:05:28.165Z,2310.00
2023-03-06T10:06:28.229Z,2341.00
2023-03-06T10:07:28.275Z,2350.00
2023-03-06T10:08:28.321Z,2366.00
2023-03-06T10:09:28.620Z,2400.00
2023-03-06T10:10:28.426Z,2411.00
2023-03-06T10:11:28.477Z,2427.00
2023-03-06T10:12:28.545Z,2451.00
2023-03-06T10:13:28.586Z,2443.00
2023-03-06T10:14:28.645Z,2478.00
2023-03-06T10:15:28.766Z,2479.00
2023-03-06T10:16:28.749Z,2516.00
2023-03-06T10:17:28.801Z,2558.00
2023-03-06T10:18:28.923Z,2566.00
2023-03-06T10:19:28.897Z,2553.00
2023-03-06T10:20:28.962Z,2541.00
2023-03-06T10:21:28.997Z,2519.00
2023-03-06T10:22:29.036Z,2500.00
2023-03-06T10:23:29.129Z,2475.00
2023-03-06T10:24:29.145Z,2467.00
2023-03-06T10:25:29.192Z,2453.00
2023-03-06T10:26:30.107Z,2450.00
2023-03-06T10:27:30.017Z,2448.00
2023-03-06T10:28:29.335Z,2447.00
2023-03-06T10:29:29.375Z,2441.00
2023-03-06T10:30:29.447Z,2448.00
2023-03-06T10:31:29.456Z,2435.00
2023-03-06T10:32:39.531Z,2425.00
2023-03-06T10:33:30.452Z,2425.00
2023-03-06T10:34:29.419Z,2426.00
2023-03-06T10:35:30.773Z,2418.00
2023-03-06T10:36:29.412Z,2418.00
2023-03-06T10:37:30.449Z,2410.00
2023-03-06T10:38:29.402Z,2400.00
2023-03-06T10:39:29.385Z,2391.00
2023-03-06T10:40:29.391Z,2388.00
2023-03-06T10:41:30.375Z,2389.00
2023-03-06T10:42:29.398Z,2375.00
2023-03-06T10:43:29.353Z,2382.00
2023-03-06T10:44:29.334Z,2370.00
2023-03-06T10:45:35.180Z,2363.00
2023-03-06T10:46:30.391Z,2388.00
2023-03-06T10:47:29.313Z,2350.00
2023-03-06T10:48:29.539Z,2334.00
2023-03-06T10:49:29.299Z,2337.00
2023-03-06T10:50:29.290Z,2325.00
2023-03-06T10:51:29.290Z,2304.00
2023-03-06T10:52:29.268Z,2292.00
2023-03-06T10:53:29.264Z,2303.00
2023-03-06T10:54:29.244Z,2297.00
2023-03-06T10:55:29.238Z,2279.00
2023-03-06T10:56:29.338Z,2275.00
2023-03-06T10:57:30.059Z,2261.00
2023-03-06T10:58:29.373Z,2254.00
2023-03-06T10:59:29.363Z,2251.00
2023-03-06T11:00:29.383Z,2240.00
2023-03-06T11:01:29.444Z,2248.00
2023-03-06T11:02:29.440Z,2216.00
2023-03-06T11:03:29.493Z,2221.00
2023-03-06T11:04:29.552Z,2211.00
2023-03-06T11:05:29.552Z,2194.00
2023-03-06T11:06:29.601Z,2198.00
2023-03-06T11:07:29.656Z,2197.00
2023-03-06T11:08:29.688Z,2195.00
2023-03-06T11:09:29.711Z,2166.00
2023-03-06T11:10:29.766Z,2167.00
2023-03-06T11:11:37.561Z,2155.00
2023-03-06T11:12:30.805Z,2155.00
2023-03-06T11:13:29.786Z,2155.00
2023-03-06T11:14:29.781Z,2155.00
2023-03-06T11:15:29.831Z,2148.00
2023-03-06T11:16:29.818Z,2141.00
2023-03-06T11:17:29.763Z,2123.00
2023-03-06T11:18:29.761Z,2117.00
2023-03-06T11:20:38.416Z,2106.00
2023-03-06T11:21:31.760Z,2107.00
2023-03-06T11:22:29.735Z,2107.00
2023-03-06T11:23:29.739Z,2086.00
2023-03-06T11:24:29.648Z,2093.00
2023-03-06T11:25:29.636Z,2076.00
2023-03-06T11:26:29.627Z,2065.00
2023-03-06T11:27:29.686Z,2067.00
2023-03-06T11:28:29.689Z,2054.00
2023-03-06T11:29:29.993Z,2043.00
2023-03-06T11:30:29.750Z,2038.00
2023-03-06T11:31:29.823Z,2040.00
2023-03-06T14:09:33.287Z,1413.00
2023-03-06T14:11:33.292Z,1400.00
2023-03-06T14:12:33.295Z,1401.00
2023-03-06T14:13:45.329Z,1418.00
2023-03-06T14:14:34.275Z,1419.00
2023-03-06T14:18:33.310Z,1417.00
2023-03-06T14:59:34.099Z,1340.00
2023-03-06T16:01:36.068Z,1231.00
2023-03-06T16:27:33.631Z,1678.00
2023-03-06T16:44:34.141Z,1555.00
2023-03-06T16:46:33.360Z,1560.00
2023-03-06T16:47:33.380Z,1536.00
2023-03-06T16:48:33.434Z,1526.00
2023-03-06T16:49:33.531Z,1533.00
2023-03-06T16:50:33.548Z,1507.00
2023-03-06T16:51:33.692Z,1510.00
2023-03-06T16:52:33.658Z,1501.00
2023-03-06T16:53:33.709Z,1497.00
2023-03-06T16:54:33.755Z,1490.00
2023-03-06T16:55:33.808Z,1494.00
2023-03-06T16:56:33.870Z,1485.00
2023-03-06T16:57:33.936Z,1469.00
2023-03-06T16:58:34.003Z,1453.00
2023-03-06T16:59:34.644Z,1449.00
2023-03-06T17:00:34.099Z,1454.00
2023-03-06T17:01:34.294Z,1451.00
2023-03-06T17:02:34.215Z,1437.00
2023-03-06T17:03:34.230Z,1427.00
2023-03-06T17:04:34.272Z,1429.00
2023-03-06T17:05:34.335Z,1422.00
2023-03-06T17:06:34.386Z,1419.00
2023-03-06T17:07:34.423Z,1415.00
2023-03-06T17:08:34.462Z,1408.00
2023-03-06T17:09:34.503Z,1404.00
2023-03-06T17:10:34.559Z,1405.00
2023-03-06T17:11:34.598Z,1395.00
2023-03-06T17:12:34.640Z,1382.00
2023-03-06T17:13:34.659Z,1389.00
2023-03-06T17:14:34.791Z,1373.00
2023-03-06T17:15:34.801Z,1381.00
2023-03-06T17:16:34.823Z,1379.00
2023-03-06T17:17:34.888Z,1366.00
2023-03-06T18:02:36.449Z,1241.00
2023-03-06T23:39:43.290Z,646.00
2023-03-06T23:52:43.309Z,637.00
2023-03-06T23:54:43.323Z,640.00
2023-03-06T23:55:43.374Z,639.00
2023-03-06T23:56:43.414Z,638.00
2023-03-06T23:57:43.464Z,638.00
2023-03-06T23:58:43.510Z,641.00
2023-03-06T23:59:43.562Z,637.00
